sensor_id;sensor_type;location;lat;lon;timestamp;temperature;humidity
64499;SHT31;51087;55.718;21.122;2023-03-01T00:01:27;2.04;99.99
64499;SHT31;51087;55.718;21.122;2023-03-01T00:03:53;1.98;99.99
64499;SHT31;51087;55.718;21.122;2023-03-01T00:06:19;1.91;99.99
64499;SHT31;51087;55.718;21.122;2023-03-01T00:08:45;1.83;99.99
64499;SHT31;51087;55.718;21.122;2023-03-01T00:11:25;1.80;99.99
64499;SHT31;51087;55.718;21.122;2023-03-01T00:13:53;1.77;99.99
64499;SHT31;51087;55.718;21.122;2023-03-01T00:16:30;1.86;99.99
64499;SHT31;51087;55.718;21.122;2023-03-01T00:18:57;1.81;99.99
64499;SHT31;51087;55.718;21.122;2023-03-01T00:21:23;1.83;99.99
64499;SHT31;51087;55.718;21.122;2023-03-01T00:23:49;1.71;99.99
64499;SHT31;51087;55.718;21.122;2023-03-01T00:26:16;1.78;99.99
64499;SHT31;51087;55.718;21.122;2023-03-01T00:28:43;1.81;99.99
64499;SHT31;51087;55.718;21.122;2023-03-01T00:31:11;1.88;99.99
64499;SHT31;51087;55.718;21.122;2023-03-01T00:33:36;2.01;99.99
64499;SHT31;51087;55.718;21.122;2023-03-01T00:36:02;1.97;99.99
64499;SHT31;51087;55.718;21.122;2023-03-01T00:38:28;1.90;99.99
64499;SHT31;51087;55.718;21.122;2023-03-01T00:40:53;1.81;99.99
64499;SHT31;51087;55.718;21.122;2023-03-01T00:43:19;1.77;99.99
64499;SHT31;51087;55.718;21.122;2023-03-01T00:45:44;1.86;99.99
64499;SHT31;51087;55.718;21.122;2023-03-01T00:48:10;1.95;99.99
64499;SHT31;51087;55.718;21.122;2023-03-01T00:50:35;2.00;99.99
64499;SHT31;51087;55.718;21.122;2023-03-01T00:53:01;1.94;99.99
64499;SHT31;51087;55.718;21.122;2023-03-01T00:55:26;1.91;99.99
64499;SHT31;51087;55.718;21.122;2023-03-01T00:57:52;1.83;99.99
64499;SHT31;51087;55.718;21.122;2023-03-01T01:00:19;1.94;99.99
64499;SHT31;51087;55.718;21.122;2023-03-01T01:02:45;1.94;99.99
64499;SHT31;51087;55.718;21.122;2023-03-01T01:05:11;1.84;99.99
64499;SHT31;51087;55.718;21.122;2023-03-01T01:07:36;1.71;99.99
64499;SHT31;51087;55.718;21.122;2023-03-01T01:10:02;1.70;99.99
64499;SHT31;51087;55.718;21.122;2023-03-01T01:12:28;1.59;99.99
64499;SHT31;51087;55.718;21.122;2023-03-01T01:14:53;1.52;99.99
64499;SHT31;51087;55.718;21.122;2023-03-01T01:17:19;1.45;99.99
64499;SHT31;51087;55.718;21.122;2023-03-01T01:19:44;1.42;99.99
64499;SHT31;51087;55.718;21.122;2023-03-01T01:22:09;1.40;99.99
64499;SHT31;51087;55.718;21.122;2023-03-01T01:24:35;1.40;99.99
64499;SHT31;51087;55.718;21.122;2023-03-01T01:27:00;1.45;99.99
64499;SHT31;51087;55.718;21.122;2023-03-01T01:29:26;1.32;99.99
64499;SHT31;51087;55.718;21.122;2023-03-01T01:31:51;1.27;99.99
64499;SHT31;51087;55.718;21.122;2023-03-01T01:34:19;1.19;99.99
64499;SHT31;51087;55.718;21.122;2023-03-01T01:36:48;1.21;99.99
64499;SHT31;51087;55.718;21.122;2023-03-01T01:39:14;1.11;99.99
64499;SHT31;51087;55.718;21.122;2023-03-01T01:41:41;1.08;99.99
64499;SHT31;51087;55.718;21.122;2023-03-01T01:44:18;0.98;99.99
64499;SHT31;51087;55.718;21.122;2023-03-01T01:51:48;0.88;99.99
64499;SHT31;51087;55.718;21.122;2023-03-01T01:54:51;0.79;99.99
64499;SHT31;51087;55.718;21.122;2023-03-01T01:57:43;0.76;99.99
64499;SHT31;51087;55.718;21.122;2023-03-01T02:00:13;0.77;99.99
64499;SHT31;51087;55.718;21.122;2023-03-01T02:02:39;0.72;99.99
64499;SHT31;51087;55.718;21.122;2023-03-01T02:05:11;0.57;99.99
64499;SHT31;51087;55.718;21.122;2023-03-01T02:07:39;0.48;99.99
64499;SHT31;51087;55.718;21.122;2023-03-01T02:10:06;0.42;99.99
64499;SHT31;51087;55.718;21.122;2023-03-01T02:12:32;0.35;99.99
64499;SHT31;51087;55.718;21.122;2023-03-01T02:14:57;0.35;99.99
64499;SHT31;51087;55.718;21.122;2023-03-01T02:17:23;0.32;99.99
64499;SHT31;51087;55.718;21.122;2023-03-01T02:22:48;0.32;99.99
64499;SHT31;51087;55.718;21.122;2023-03-01T02:30:33;0.15;99.99
64499;SHT31;51087;55.718;21.122;2023-03-01T02:33:00;0.12;99.99
64499;SHT31;51087;55.718;21.122;2023-03-01T02:35:38;-0.01;99.99
64499;SHT31;51087;55.718;21.122;2023-03-01T02:38:07;-0.05;99.99
64499;SHT31;51087;55.718;21.122;2023-03-01T02:40:34;-0.12;99.99
64499;SHT31;51087;55.718;21.122;2023-03-01T02:43:01;-0.12;99.99
64499;SHT31;51087;55.718;21.122;2023-03-01T02:45:29;-0.03;99.99
64499;SHT31;51087;55.718;21.122;2023-03-01T02:47:55;-0.10;99.99
64499;SHT31;51087;55.718;21.122;2023-03-01T02:53:02;-0.07;99.99
64499;SHT31;51087;55.718;21.122;2023-03-01T02:55:31;-0.06;99.99
64499;SHT31;51087;55.718;21.122;2023-03-01T02:57:56;-0.07;99.99
64499;SHT31;51087;55.718;21.122;2023-03-01T03:00:32;-0.10;99.99
64499;SHT31;51087;55.718;21.122;2023-03-01T03:03:00;-0.17;99.99
64499;SHT31;51087;55.718;21.122;2023-03-01T03:05:29;-0.24;99.99
64499;SHT31;51087;55.718;21.122;2023-03-01T03:07:55;-0.34;99.99
64499;SHT31;51087;55.718;21.122;2023-03-01T03:10:32;-0.37;99.99
64499;SHT31;51087;55.718;21.122;2023-03-01T03:13:00;-0.26;99.99
64499;SHT31;51087;55.718;21.122;2023-03-01T03:15:27;-0.23;99.99
64499;SHT31;51087;55.718;21.122;2023-03-01T03:17:54;-0.24;99.99
64499;SHT31;51087;55.718;21.122;2023-03-01T03:20:22;-0.41;99.99
64499;SHT31;51087;55.718;21.122;2023-03-01T03:22:51;-0.41;99.99
64499;SHT31;51087;55.718;21.122;2023-03-01T03:25:17;-0.33;99.99
64499;SHT31;51087;55.718;21.122;2023-03-01T03:27:45;-0.23;99.99
64499;SHT31;51087;55.718;21.122;2023-03-01T03:30:14;-0.29;99.99
64499;SHT31;51087;55.718;21.122;2023-03-01T03:32:43;-0.27;99.99
64499;SHT31;51087;55.718;21.122;2023-03-01T03:35:19;-0.10;99.99
64499;SHT31;51087;55.718;21.122;2023-03-01T03:37:44;0.01;99.99
64499;SHT31;51087;55.718;21.122;2023-03-01T03:40:39;0.09;99.99
64499;SHT31;51087;55.718;21.122;2023-03-01T03:43:07;0.18;99.99
64499;SHT31;51087;55.718;21.122;2023-03-01T03:45:33;0.26;99.99
64499;SHT31;51087;55.718;21.122;2023-03-01T03:48:00;0.39;99.99
64499;SHT31;51087;55.718;21.122;2023-03-01T03:50:26;0.46;99.99
64499;SHT31;51087;55.718;21.122;2023-03-01T03:52:51;0.52;99.99
64499;SHT31;51087;55.718;21.122;2023-03-01T03:55:17;0.62;99.99
64499;SHT31;51087;55.718;21.122;2023-03-01T03:57:45;0.80;99.99
64499;SHT31;51087;55.718;21.122;2023-03-01T04:00:20;0.90;99.99
64499;SHT31;51087;55.718;21.122;2023-03-01T04:02:47;1.01;99.99
64499;SHT31;51087;55.718;21.122;2023-03-01T04:05:14;1.11;99.99
64499;SHT31;51087;55.718;21.122;2023-03-01T04:07:41;1.14;99.99
64499;SHT31;51087;55.718;21.122;2023-03-01T04:10:10;1.25;99.99
64499;SHT31;51087;55.718;21.122;2023-03-01T04:12:36;1.36;99.99
64499;SHT31;51087;55.718;21.122;2023-03-01T04:15:03;1.46;99.99
64499;SHT31;51087;55.718;21.122;2023-03-01T04:17:41;1.49;99.99
64499;SHT31;51087;55.718;21.122;2023-03-01T04:20:21;1.63;99.99
64499;SHT31;51087;55.718;21.122;2023-03-01T04:22:56;1.66;99.99
64499;SHT31;51087;55.718;21.122;2023-03-01T04:25:22;1.80;99.99
64499;SHT31;51087;55.718;21.122;2023-03-01T04:27:48;1.88;99.99
64499;SHT31;51087;55.718;21.122;2023-03-01T04:30:14;1.91;99.99
64499;SHT31;51087;55.718;21.122;2023-03-01T04:32:39;1.90;99.99
64499;SHT31;51087;55.718;21.122;2023-03-01T04:35:05;1.86;99.99
64499;SHT31;51087;55.718;21.122;2023-03-01T04:37:30;1.81;99.99
64499;SHT31;51087;55.718;21.122;2023-03-01T04:39:56;1.78;99.99
64499;SHT31;51087;55.718;21.122;2023-03-01T04:42:21;1.81;99.99
64499;SHT31;51087;55.718;21.122;2023-03-01T04:44:46;1.81;99.99
64499;SHT31;51087;55.718;21.122;2023-03-01T04:47:12;1.81;99.99
64499;SHT31;51087;55.718;21.122;2023-03-01T04:49:38;1.84;99.99
64499;SHT31;51087;55.718;21.122;2023-03-01T04:52:04;1.81;99.99
64499;SHT31;51087;55.718;21.122;2023-03-01T04:54:31;2.01;99.99
64499;SHT31;51087;55.718;21.122;2023-03-01T04:56:57;2.08;99.99
64499;SHT31;51087;55.718;21.122;2023-03-01T04:59:22;2.07;99.99
64499;SHT31;51087;55.718;21.122;2023-03-01T05:01:49;2.04;99.99
64499;SHT31;51087;55.718;21.122;2023-03-01T05:04:14;2.18;99.99
64499;SHT31;51087;55.718;21.122;2023-03-01T05:06:40;2.26;99.99
64499;SHT31;51087;55.718;21.122;2023-03-01T05:09:06;2.38;99.99
64499;SHT31;51087;55.718;21.122;2023-03-01T05:11:32;2.42;99.99
64499;SHT31;51087;55.718;21.122;2023-03-01T05:14:02;2.42;99.99
64499;SHT31;51087;55.718;21.122;2023-03-01T05:16:27;2.42;99.99
64499;SHT31;51087;55.718;21.122;2023-03-01T05:18:53;2.38;99.99
64499;SHT31;51087;55.718;21.122;2023-03-01T05:21:20;2.48;99.99
64499;SHT31;51087;55.718;21.122;2023-03-01T05:23:46;2.48;99.99
64499;SHT31;51087;55.718;21.122;2023-03-01T05:26:12;2.46;99.99
64499;SHT31;51087;55.718;21.122;2023-03-01T05:28:38;2.42;99.99
64499;SHT31;51087;55.718;21.122;2023-03-01T05:31:05;2.45;99.99
64499;SHT31;51087;55.718;21.122;2023-03-01T05:33:38;2.57;99.99
64499;SHT31;51087;55.718;21.122;2023-03-01T05:36:06;2.63;99.99
64499;SHT31;51087;55.718;21.122;2023-03-01T05:38:32;2.73;99.99
64499;SHT31;51087;55.718;21.122;2023-03-01T05:40:58;2.75;99.99
64499;SHT31;51087;55.718;21.122;2023-03-01T05:43:23;2.75;99.99
64499;SHT31;51087;55.718;21.122;2023-03-01T05:45:49;2.83;99.99
64499;SHT31;51087;55.718;21.122;2023-03-01T05:48:14;2.83;99.99
64499;SHT31;51087;55.718;21.122;2023-03-01T05:50:42;2.87;99.99
64499;SHT31;51087;55.718;21.122;2023-03-01T05:53:19;2.86;99.99
64499;SHT31;51087;55.718;21.122;2023-03-01T05:55:48;2.90;99.99
64499;SHT31;51087;55.718;21.122;2023-03-01T05:58:17;2.91;99.99
64499;SHT31;51087;55.718;21.122;2023-03-01T06:00:44;2.96;99.99
64499;SHT31;51087;55.718;21.122;2023-03-01T06:03:12;2.98;99.99
64499;SHT31;51087;55.718;21.122;2023-03-01T06:05:38;3.05;99.99
64499;SHT31;51087;55.718;21.122;2023-03-01T06:08:04;3.07;99.99
64499;SHT31;51087;55.718;21.122;2023-03-01T06:10:30;3.11;99.99
64499;SHT31;51087;55.718;21.122;2023-03-01T06:12:56;3.14;99.99
64499;SHT31;51087;55.718;21.122;2023-03-01T06:15:22;3.14;99.99
64499;SHT31;51087;55.718;21.122;2023-03-01T06:17:48;3.19;99.99
64499;SHT31;51087;55.718;21.122;2023-03-01T06:20:20;3.17;99.99
64499;SHT31;51087;55.718;21.122;2023-03-01T06:22:46;3.18;99.99
64499;SHT31;51087;55.718;21.122;2023-03-01T06:25:13;3.19;99.99
64499;SHT31;51087;55.718;21.122;2023-03-01T06:27:39;3.24;99.99
64499;SHT31;51087;55.718;21.122;2023-03-01T06:30:05;3.26;99.99
64499;SHT31;51087;55.718;21.122;2023-03-01T06:32:32;3.29;99.99
64499;SHT31;51087;55.718;21.122;2023-03-01T06:34:57;3.26;99.99
64499;SHT31;51087;55.718;21.122;2023-03-01T06:37:24;3.34;99.99
64499;SHT31;51087;55.718;21.122;2023-03-01T06:39:50;3.36;99.99
64499;SHT31;51087;55.718;21.122;2023-03-01T06:42:15;3.51;99.99
64499;SHT31;51087;55.718;21.122;2023-03-01T06:44:40;3.52;99.99
64499;SHT31;51087;55.718;21.122;2023-03-01T06:47:06;3.60;99.99
64499;SHT31;51087;55.718;21.122;2023-03-01T06:49:31;3.66;99.99
64499;SHT31;51087;55.718;21.122;2023-03-01T06:51:57;3.67;99.99
64499;SHT31;51087;55.718;21.122;2023-03-01T06:54:23;3.70;99.99
64499;SHT31;51087;55.718;21.122;2023-03-01T06:56:49;3.74;99.99
64499;SHT31;51087;55.718;21.122;2023-03-01T06:59:15;3.80;99.99
64499;SHT31;51087;55.718;21.122;2023-03-01T07:01:41;3.84;99.99
64499;SHT31;51087;55.718;21.122;2023-03-01T07:04:06;3.84;99.99
64499;SHT31;51087;55.718;21.122;2023-03-01T07:06:32;3.83;99.33
64499;SHT31;51087;55.718;21.122;2023-03-01T07:08:57;3.83;99.38
64499;SHT31;51087;55.718;21.122;2023-03-01T07:11:23;3.86;99.41
64499;SHT31;51087;55.718;21.122;2023-03-01T07:13:48;3.91;99.70
64499;SHT31;51087;55.718;21.122;2023-03-01T07:16:14;3.97;99.99
64499;SHT31;51087;55.718;21.122;2023-03-01T07:18:40;4.01;99.33
64499;SHT31;51087;55.718;21.122;2023-03-01T07:21:07;4.01;99.01
64499;SHT31;51087;55.718;21.122;2023-03-01T07:23:33;4.04;99.41
64499;SHT31;51087;55.718;21.122;2023-03-01T07:25:59;4.05;98.70
64499;SHT31;51087;55.718;21.122;2023-03-01T07:28:25;4.10;98.96
64499;SHT31;51087;55.718;21.122;2023-03-01T07:30:51;4.07;99.49
64499;SHT31;51087;55.718;21.122;2023-03-01T07:33:17;4.17;98.85
64499;SHT31;51087;55.718;21.122;2023-03-01T07:35:42;4.21;99.13
64499;SHT31;51087;55.718;21.122;2023-03-01T07:38:08;4.25;99.30
64499;SHT31;51087;55.718;21.122;2023-03-01T07:40:33;4.32;98.40
64499;SHT31;51087;55.718;21.122;2023-03-01T07:42:59;4.38;98.79
64499;SHT31;51087;55.718;21.122;2023-03-01T07:45:27;4.41;98.56
64499;SHT31;51087;55.718;21.122;2023-03-01T07:47:52;4.37;98.30
64499;SHT31;51087;55.718;21.122;2023-03-01T07:50:18;4.45;98.34
64499;SHT31;51087;55.718;21.122;2023-03-01T07:52:47;4.49;97.92
64499;SHT31;51087;55.718;21.122;2023-03-01T07:55:14;4.50;97.43
64499;SHT31;51087;55.718;21.122;2023-03-01T07:57:39;4.39;98.06
64499;SHT31;51087;55.718;21.122;2023-03-01T08:00:06;4.44;97.72
64499;SHT31;51087;55.718;21.122;2023-03-01T08:02:33;4.48;97.66
64499;SHT31;51087;55.718;21.122;2023-03-01T08:04:58;4.48;97.74
64499;SHT31;51087;55.718;21.122;2023-03-01T08:07:23;4.56;98.04
64499;SHT31;51087;55.718;21.122;2023-03-01T08:09:49;4.62;98.42
64499;SHT31;51087;55.718;21.122;2023-03-01T08:12:14;4.65;97.70
64499;SHT31;51087;55.718;21.122;2023-03-01T08:14:42;4.67;97.79
64499;SHT31;51087;55.718;21.122;2023-03-01T08:17:07;4.76;97.84
64499;SHT31;51087;55.718;21.122;2023-03-01T08:19:33;4.77;97.56
64499;SHT31;51087;55.718;21.122;2023-03-01T08:22:01;4.84;97.32
64499;SHT31;51087;55.718;21.122;2023-03-01T08:24:27;4.86;97.50
64499;SHT31;51087;55.718;21.122;2023-03-01T08:26:53;4.88;97.17
64499;SHT31;51087;55.718;21.122;2023-03-01T08:29:18;4.87;97.25
64499;SHT31;51087;55.718;21.122;2023-03-01T08:31:44;4.97;96.90
64499;SHT31;51087;55.718;21.122;2023-03-01T08:34:12;5.01;96.83
64499;SHT31;51087;55.718;21.122;2023-03-01T08:36:43;4.98;96.92
64499;SHT31;51087;55.718;21.122;2023-03-01T08:39:11;5.14;96.72
64499;SHT31;51087;55.718;21.122;2023-03-01T08:41:37;5.14;96.43
64499;SHT31;51087;55.718;21.122;2023-03-01T08:44:03;5.24;96.24
64499;SHT31;51087;55.718;21.122;2023-03-01T08:46:34;5.27;95.88
64499;SHT31;51087;55.718;21.122;2023-03-01T08:49:07;5.27;95.58
64499;SHT31;51087;55.718;21.122;2023-03-01T08:51:35;5.32;95.23
64499;SHT31;51087;55.718;21.122;2023-03-01T08:54:07;5.43;95.01
64499;SHT31;51087;55.718;21.122;2023-03-01T08:56:33;5.58;94.46
64499;SHT31;51087;55.718;21.122;2023-03-01T08:58:58;5.69;94.05
64499;SHT31;51087;55.718;21.122;2023-03-01T09:01:24;5.74;93.99
64499;SHT31;51087;55.718;21.122;2023-03-01T09:03:50;5.83;93.30
64499;SHT31;51087;55.718;21.122;2023-03-01T09:06:15;5.93;93.09
64499;SHT31;51087;55.718;21.122;2023-03-01T09:08:45;6.04;92.45
64499;SHT31;51087;55.718;21.122;2023-03-01T09:11:14;6.07;92.22
64499;SHT31;51087;55.718;21.122;2023-03-01T09:13:41;5.99;92.14
64499;SHT31;51087;55.718;21.122;2023-03-01T09:16:07;6.14;92.32
64499;SHT31;51087;55.718;21.122;2023-03-01T09:18:33;6.00;92.10
64499;SHT31;51087;55.718;21.122;2023-03-01T09:21:07;6.01;92.02
64499;SHT31;51087;55.718;21.122;2023-03-01T09:23:37;5.73;92.72
64499;SHT31;51087;55.718;21.122;2023-03-01T09:26:05;5.69;92.77
64499;SHT31;51087;55.718;21.122;2023-03-01T09:28:30;5.83;92.82
64499;SHT31;51087;55.718;21.122;2023-03-01T09:30:59;5.79;92.50
64499;SHT31;51087;55.718;21.122;2023-03-01T09:33:25;5.79;92.69
64499;SHT31;51087;55.718;21.122;2023-03-01T09:35:56;5.74;92.88
64499;SHT31;51087;55.718;21.122;2023-03-01T09:38:22;5.53;93.05
64499;SHT31;51087;55.718;21.122;2023-03-01T09:40:47;5.62;93.25
64499;SHT31;51087;55.718;21.122;2023-03-01T09:43:20;5.56;93.26
64499;SHT31;51087;55.718;21.122;2023-03-01T09:45:49;5.63;93.24
64499;SHT31;51087;55.718;21.122;2023-03-01T09:48:18;5.70;92.99
64499;SHT31;51087;55.718;21.122;2023-03-01T09:50:47;6.00;92.58
64499;SHT31;51087;55.718;21.122;2023-03-01T09:53:16;6.11;91.68
64499;SHT31;51087;55.718;21.122;2023-03-01T09:55:51;6.25;91.30
64499;SHT31;51087;55.718;21.122;2023-03-01T09:58:28;6.46;90.29
64499;SHT31;51087;55.718;21.122;2023-03-01T10:00:57;6.71;89.17
64499;SHT31;51087;55.718;21.122;2023-03-01T10:04:15;6.89;88.92
64499;SHT31;51087;55.718;21.122;2023-03-01T10:06:35;7.35;87.17
64499;SHT31;51087;55.718;21.122;2023-03-01T10:09:19;8.20;84.20
64499;SHT31;51087;55.718;21.122;2023-03-01T10:11:48;8.80;81.37
64499;SHT31;51087;55.718;21.122;2023-03-01T10:14:35;8.69;81.03
64499;SHT31;51087;55.718;21.122;2023-03-01T10:17:11;9.38;78.68
64499;SHT31;51087;55.718;21.122;2023-03-01T10:19:45;10.55;75.77
64499;SHT31;51087;55.718;21.122;2023-03-01T10:22:24;11.20;72.98
64499;SHT31;51087;55.718;21.122;2023-03-01T10:24:53;10.86;72.81
64499;SHT31;51087;55.718;21.122;2023-03-01T10:27:32;10.55;74.20
64499;SHT31;51087;55.718;21.122;2023-03-01T10:30:16;10.48;73.11
64499;SHT31;51087;55.718;21.122;2023-03-01T10:32:45;10.49;74.10
64499;SHT31;51087;55.718;21.122;2023-03-01T10:35:22;10.47;73.82
64499;SHT31;51087;55.718;21.122;2023-03-01T10:38:05;10.65;73.87
64499;SHT31;51087;55.718;21.122;2023-03-01T10:40:33;9.90;75.79
64499;SHT31;51087;55.718;21.122;2023-03-01T10:43:01;9.21;76.11
64499;SHT31;51087;55.718;21.122;2023-03-01T10:45:38;8.80;78.66
64499;SHT31;51087;55.718;21.122;2023-03-01T10:50:43;8.97;77.82
64499;SHT31;51087;55.718;21.122;2023-03-01T10:53:50;9.03;78.02
64499;SHT31;51087;55.718;21.122;2023-03-01T10:56:16;10.00;76.20
64499;SHT31;51087;55.718;21.122;2023-03-01T10:59:00;12.67;68.53
64499;SHT31;51087;55.718;21.122;2023-03-01T11:01:27;13.78;63.83
64499;SHT31;51087;55.718;21.122;2023-03-01T11:06:30;12.71;65.48
64499;SHT31;51087;55.718;21.122;2023-03-01T11:08:56;12.65;66.41
64499;SHT31;51087;55.718;21.122;2023-03-01T11:11:33;12.72;65.21
64499;SHT31;51087;55.718;21.122;2023-03-01T11:14:06;11.03;68.47
64499;SHT31;51087;55.718;21.122;2023-03-01T11:16:36;10.96;69.77
64499;SHT31;51087;55.718;21.122;2023-03-01T11:22:24;11.05;69.71
64499;SHT31;51087;55.718;21.122;2023-03-01T11:29:51;12.99;63.70
64499;SHT31;51087;55.718;21.122;2023-03-01T11:32:18;13.63;61.46
64499;SHT31;51087;55.718;21.122;2023-03-01T11:35:14;14.33;59.62
64499;SHT31;51087;55.718;21.122;2023-03-01T11:40:37;16.66;53.58
64499;SHT31;51087;55.718;21.122;2023-03-01T11:43:19;16.74;52.54
64499;SHT31;51087;55.718;21.122;2023-03-01T11:46:27;15.31;55.94
64499;SHT31;51087;55.718;21.122;2023-03-01T11:52:01;14.83;56.19
64499;SHT31;51087;55.718;21.122;2023-03-01T12:00:30;16.04;54.85
64499;SHT31;51087;55.718;21.122;2023-03-01T12:05:57;16.69;52.42
64499;SHT31;51087;55.718;21.122;2023-03-01T12:08:39;15.50;54.21
64499;SHT31;51087;55.718;21.122;2023-03-01T12:14:26;12.02;65.69
64499;SHT31;51087;55.718;21.122;2023-03-01T12:25:30;11.58;67.40
64499;SHT31;51087;55.718;21.122;2023-03-01T12:28:36;11.37;67.56
64499;SHT31;51087;55.718;21.122;2023-03-01T12:36:40;12.69;63.85
64499;SHT31;51087;55.718;21.122;2023-03-01T12:41:46;12.32;64.22
64499;SHT31;51087;55.718;21.122;2023-03-01T12:44:42;11.44;66.51
64499;SHT31;51087;55.718;21.122;2023-03-01T12:49:51;10.23;68.86
64499;SHT31;51087;55.718;21.122;2023-03-01T12:52:35;10.82;65.96
64499;SHT31;51087;55.718;21.122;2023-03-01T12:55:02;11.35;62.93
64499;SHT31;51087;55.718;21.122;2023-03-01T12:57:40;11.34;61.94
64499;SHT31;51087;55.718;21.122;2023-03-01T13:00:27;11.27;61.53
64499;SHT31;51087;55.718;21.122;2023-03-01T13:05:35;11.06;61.57
64499;SHT31;51087;55.718;21.122;2023-03-01T13:15:44;13.81;53.63
64499;SHT31;51087;55.718;21.122;2023-03-01T13:23:24;14.97;50.73
64499;SHT31;51087;55.718;21.122;2023-03-01T13:44:30;9.65;63.41
64499;SHT31;51087;55.718;21.122;2023-03-01T13:52:39;8.79;65.85
64499;SHT31;51087;55.718;21.122;2023-03-01T13:57:44;8.45;64.48
64499;SHT31;51087;55.718;21.122;2023-03-01T14:00:29;8.59;64.59
64499;SHT31;51087;55.718;21.122;2023-03-01T14:05:43;8.40;62.79
64499;SHT31;51087;55.718;21.122;2023-03-01T14:08:21;8.30;62.65
64499;SHT31;51087;55.718;21.122;2023-03-01T14:13:48;7.80;61.56
64499;SHT31;51087;55.718;21.122;2023-03-01T14:17:07;7.66;62.32
64499;SHT31;51087;55.718;21.122;2023-03-01T14:19:22;7.65;62.95
64499;SHT31;51087;55.718;21.122;2023-03-01T14:24:50;7.34;64.64
64499;SHT31;51087;55.718;21.122;2023-03-01T14:27:17;7.28;64.84
64499;SHT31;51087;55.718;21.122;2023-03-01T14:29:43;7.28;66.53
64499;SHT31;51087;55.718;21.122;2023-03-01T14:32:19;7.04;69.82
64499;SHT31;51087;55.718;21.122;2023-03-01T14:34:48;6.92;69.51
64499;SHT31;51087;55.718;21.122;2023-03-01T14:37:21;6.80;69.90
64499;SHT31;51087;55.718;21.122;2023-03-01T14:39:47;6.65;70.24
64499;SHT31;51087;55.718;21.122;2023-03-01T14:42:13;6.52;72.27
64499;SHT31;51087;55.718;21.122;2023-03-01T14:44:42;6.37;72.59
64499;SHT31;51087;55.718;21.122;2023-03-01T14:47:29;6.17;73.33
64499;SHT31;51087;55.718;21.122;2023-03-01T14:50:09;6.04;73.16
64499;SHT31;51087;55.718;21.122;2023-03-01T14:52:37;5.97;73.59
64499;SHT31;51087;55.718;21.122;2023-03-01T14:55:29;5.89;73.34
64499;SHT31;51087;55.718;21.122;2023-03-01T14:57:56;5.73;71.17
64499;SHT31;51087;55.718;21.122;2023-03-01T15:00:25;5.60;72.07
64499;SHT31;51087;55.718;21.122;2023-03-01T15:02:52;5.55;71.79
64499;SHT31;51087;55.718;21.122;2023-03-01T15:05:29;5.42;72.54
64499;SHT31;51087;55.718;21.122;2023-03-01T15:07:56;5.36;76.62
64499;SHT31;51087;55.718;21.122;2023-03-01T15:10:25;5.30;77.93
64499;SHT31;51087;55.718;21.122;2023-03-01T15:12:51;5.17;79.36
64499;SHT31;51087;55.718;21.122;2023-03-01T15:15:35;5.04;80.70
64499;SHT31;51087;55.718;21.122;2023-03-01T15:18:13;4.87;81.42
64499;SHT31;51087;55.718;21.122;2023-03-01T15:20:39;4.70;81.69
64499;SHT31;51087;55.718;21.122;2023-03-01T15:23:05;4.58;83.50
64499;SHT31;51087;55.718;21.122;2023-03-01T15:25:32;4.41;84.89
64499;SHT31;51087;55.718;21.122;2023-03-01T15:28:00;4.28;85.75
64499;SHT31;51087;55.718;21.122;2023-03-01T15:30:32;4.14;85.80
64499;SHT31;51087;55.718;21.122;2023-03-01T15:33:30;3.97;86.56
64499;SHT31;51087;55.718;21.122;2023-03-01T15:36:04;3.86;86.91
64499;SHT31;51087;55.718;21.122;2023-03-01T15:38:54;3.72;87.19
64499;SHT31;51087;55.718;21.122;2023-03-01T15:41:32;3.58;87.73
64499;SHT31;51087;55.718;21.122;2023-03-01T15:43:59;3.52;87.14
64499;SHT31;51087;55.718;21.122;2023-03-01T15:46:28;3.40;86.91
64499;SHT31;51087;55.718;21.122;2023-03-01T15:49:04;3.28;87.19
64499;SHT31;51087;55.718;21.122;2023-03-01T15:51:35;3.18;88.22
64499;SHT31;51087;55.718;21.122;2023-03-01T15:56:57;2.97;88.95
64499;SHT31;51087;55.718;21.122;2023-03-01T15:59:23;2.84;89.99
64499;SHT31;51087;55.718;21.122;2023-03-01T16:01:48;2.76;90.43
64499;SHT31;51087;55.718;21.122;2023-03-01T16:04:17;2.67;91.17
64499;SHT31;51087;55.718;21.122;2023-03-01T16:06:48;2.53;92.11
64499;SHT31;51087;55.718;21.122;2023-03-01T16:09:22;2.43;92.61
64499;SHT31;51087;55.718;21.122;2023-03-01T16:11:48;2.32;93.30
64499;SHT31;51087;55.718;21.122;2023-03-01T16:14:13;2.21;93.63
64499;SHT31;51087;55.718;21.122;2023-03-01T16:16:40;2.11;94.63
64499;SHT31;51087;55.718;21.122;2023-03-01T16:19:05;2.04;94.85
64499;SHT31;51087;55.718;21.122;2023-03-01T16:21:31;1.91;95.23
64499;SHT31;51087;55.718;21.122;2023-03-01T16:24:02;1.86;95.54
64499;SHT31;51087;55.718;21.122;2023-03-01T16:26:27;1.78;95.80
64499;SHT31;51087;55.718;21.122;2023-03-01T16:28:57;1.76;96.20
64499;SHT31;51087;55.718;21.122;2023-03-01T16:31:23;1.66;96.42
64499;SHT31;51087;55.718;21.122;2023-03-01T16:33:53;1.53;97.21
64499;SHT31;51087;55.718;21.122;2023-03-01T16:36:20;1.36;97.43
64499;SHT31;51087;55.718;21.122;2023-03-01T16:38:48;1.40;97.87
64499;SHT31;51087;55.718;21.122;2023-03-01T16:41:16;1.36;98.37
64499;SHT31;51087;55.718;21.122;2023-03-01T16:43:42;1.24;98.73
64499;SHT31;51087;55.718;21.122;2023-03-01T16:46:17;1.25;99.13
64499;SHT31;51087;55.718;21.122;2023-03-01T16:48:43;1.22;99.16
64499;SHT31;51087;55.718;21.122;2023-03-01T16:51:09;1.18;99.09
64499;SHT31;51087;55.718;21.122;2023-03-01T16:53:35;1.05;99.81
64499;SHT31;51087;55.718;21.122;2023-03-01T16:56:06;1.00;99.99
64499;SHT31;51087;55.718;21.122;2023-03-01T16:58:33;0.94;99.99
64499;SHT31;51087;55.718;21.122;2023-03-01T17:01:15;0.92;99.99
64499;SHT31;51087;55.718;21.122;2023-03-01T17:03:42;0.85;99.99
64499;SHT31;51087;55.718;21.122;2023-03-01T17:06:10;0.80;99.99
64499;SHT31;51087;55.718;21.122;2023-03-01T17:08:36;0.77;99.99
64499;SHT31;51087;55.718;21.122;2023-03-01T17:11:09;0.79;99.99
64499;SHT31;51087;55.718;21.122;2023-03-01T17:13:36;0.87;99.99
64499;SHT31;51087;55.718;21.122;2023-03-01T17:16:06;0.84;99.99
64499;SHT31;51087;55.718;21.122;2023-03-01T17:18:33;0.84;99.99
64499;SHT31;51087;55.718;21.122;2023-03-01T17:20:59;0.87;99.99
64499;SHT31;51087;55.718;21.122;2023-03-01T17:23:26;0.87;99.99
64499;SHT31;51087;55.718;21.122;2023-03-01T17:25:52;0.88;99.99
64499;SHT31;51087;55.718;21.122;2023-03-01T17:28:20;0.84;99.99
64499;SHT31;51087;55.718;21.122;2023-03-01T17:30:46;0.85;99.99
64499;SHT31;51087;55.718;21.122;2023-03-01T17:33:12;0.84;99.99
64499;SHT31;51087;55.718;21.122;2023-03-01T17:35:38;0.87;99.99
64499;SHT31;51087;55.718;21.122;2023-03-01T17:38:04;0.77;99.99
64499;SHT31;51087;55.718;21.122;2023-03-01T17:40:30;0.79;99.99
64499;SHT31;51087;55.718;21.122;2023-03-01T17:42:56;0.70;99.99